Kennard, NE (68034)

5:52 AM CST on February 24, 2017 (GMT -0600)
CR 32 | | Change Station
Active Advisory: Winter Storm Warning

Elev 1240 ft 41.47 °N, 96.13 °W | Updated 2 minutes ago

Snow
Snow
27.0 °F
Feels Like 15 °F
N
16.0
Wind Variable Wind from North
Gusts 32.0 mph

Today
High -- | Low -- °F
--% Chance of Precip.
Yesterday
High -- | Low -- °F
Precip. -- in
Pressure 29.66 in
Visibility 7.0 miles
Clouds Overcast 500 ft
Windchill 15 °F
Dew Point 27 °F
Humidity 99%
Rainfall 0.00 in
Snow Depth Not available.
7:06 AM 6:09 PM
Waning Crescent, 5% visible
METAR KBTA 241135Z AUTO 34020G26KT 7SM -SN OVC005 M01/M02 A2966 RMK AO2 T10111020
Pressure 29.66 in
Visibility 7.0 miles
Clouds Overcast 500 ft
Windchill 15 °F
Dew Point 27 °F
Humidity 99%
Rainfall 0.00 in
Snow Depth Not available.
7:06 AM 6:09 PM
Waning Crescent, 5% visible
METAR KBTA 241135Z AUTO 34020G26KT 7SM -SN OVC005 M01/M02 A2966 RMK AO2 T10111020

Get Your Daily Forecast Email!

Thanks for signing up!

Be on the lookout for a verification email in your inbox.

You'll start receiving the daily forecast at 8 AM.

×

10-Day Weather Forecast

Almanac

Astronomy

Feb. 24, 2017 Rise Set
Actual Time
Civil Twilight
Nautical Twilight
Astronomical Twilight
Moon
Length of Visible Light
Length of Day
Tomorrow will be .
, % of the Moon is Illuminated

Today's Extremes

State Highs State Lows

Community

WunderPhotos

Upload Photos

1,962,540 photos uploaded!

WunderBlog® & News

Nearby

Air Quality

  Air Quality AQ Index Pollutant
Not available.

Snow Depth

Station Depth Elevation

Earthquake Activity

City Distance Mag. Time & Date
Minimum magnitude displayed is 2.5.

Coastal Water Temperatures

Place Temperature

Stations

Nearby Weather Stations

Station Location Temp. Windchill Dew Point Humidity Wind Precip. Elev Updated Type
                   

Watches & Warnings

Winter Storm Warning
Issued: 3:12 AM CST Feb. 24, 2017 – National Weather Service

... Winter Storm Warning now in effect until 9 PM CST this
evening...

* timing... snow, occasionally moderate, will continue today before
ending this evening.

* Snow accumulations... storm total snow accumulations of 5 to 8
inches are expected.

* Winds... northerly winds 20 to 30 mph gusting around 35 mph will
likely cause considerable blowing and drifting snow.

* Impacts... reduced visibilities, with whiteout conditions at
times will make travel eventually become very hazardous to
nearly impossible.

Precautionary/preparedness actions...

A Winter Storm Warning for heavy snow means severe winter weather
conditions are expected or occurring. Significant amounts of snow
are forecast that will make travel dangerous. Only travel in an
emergency. If you must travel, keep an extra flashlight, food,
and water in your vehicle in case of an emergency.